createdAt,value
2017-07-28T00:02:07.407Z,8.53
2017-07-28T00:04:36.847Z,7.90
2017-07-28T00:07:05.935Z,8.10
2017-07-28T00:09:34.956Z,7.80
2017-07-28T00:12:03.997Z,8.07
2017-07-28T00:14:33.067Z,9.67
2017-07-28T00:17:02.216Z,8.23
2017-07-28T00:19:31.299Z,9.03
2017-07-28T00:22:00.352Z,8.40
2017-07-28T00:24:29.407Z,8.87
2017-07-28T00:26:58.666Z,8.63
2017-07-28T00:29:27.695Z,9.33
2017-07-28T00:31:56.783Z,8.73
2017-07-28T00:34:25.852Z,8.70
2017-07-28T00:36:54.916Z,9.57
2017-07-28T00:39:23.984Z,9.37
2017-07-28T00:41:53.023Z,10.00
2017-07-28T00:44:22.103Z,8.30
2017-07-28T00:46:51.147Z,8.60
2017-07-28T00:49:20.225Z,8.40
2017-07-28T00:51:49.293Z,8.73
2017-07-28T00:54:18.361Z,9.67
2017-07-28T00:56:47.423Z,9.40
2017-07-28T00:59:16.472Z,10.00
2017-07-28T01:01:45.543Z,9.10
2017-07-28T01:04:14.583Z,9.23
2017-07-28T01:06:43.646Z,10.37
2017-07-28T01:09:12.732Z,10.10
2017-07-28T01:11:41.825Z,10.63
2017-07-28T01:14:10.870Z,10.73
2017-07-28T01:16:39.966Z,11.07
2017-07-28T01:19:09.013Z,12.50
2017-07-28T01:21:38.284Z,11.93
2017-07-28T01:24:07.362Z,11.50
2017-07-28T01:26:36.408Z,11.17
2017-07-28T01:29:05.473Z,10.80
2017-07-28T01:31:34.512Z,11.47
2017-07-28T01:34:03.597Z,10.40
2017-07-28T01:36:32.643Z,11.13
2017-07-28T01:39:01.713Z,11.10
2017-07-28T01:41:30.791Z,11.60
2017-07-28T01:43:59.852Z,9.90
2017-07-28T01:46:28.904Z,10.40
2017-07-28T01:48:57.973Z,10.50
2017-07-28T01:51:27.013Z,11.83
2017-07-28T01:53:56.076Z,12.07
2017-07-28T01:56:25.127Z,10.60
2017-07-28T01:58:54.184Z,9.73
2017-07-28T02:01:23.247Z,10.50
2017-07-28T02:03:52.312Z,10.33
2017-07-28T02:06:21.377Z,9.90
2017-07-28T02:08:50.452Z,11.13
2017-07-28T02:11:19.521Z,10.90
2017-07-28T02:13:48.571Z,10.53
2017-07-28T02:16:17.640Z,9.20
2017-07-28T02:18:46.704Z,8.87
2017-07-28T02:21:15.781Z,10.60
2017-07-28T02:23:44.874Z,8.97
2017-07-28T02:26:13.913Z,8.33
2017-07-28T02:28:42.959Z,8.43
2017-07-28T02:31:12.060Z,7.00
2017-07-28T02:33:41.125Z,8.33
2017-07-28T02:36:10.179Z,8.10
2017-07-28T02:38:39.241Z,5.90
2017-07-28T02:41:08.280Z,7.90
2017-07-28T02:43:37.383Z,6.10
2017-07-28T02:46:06.424Z,6.03
2017-07-28T02:48:35.493Z,6.60
2017-07-28T02:51:04.591Z,5.90
2017-07-28T02:53:33.854Z,6.20
2017-07-28T02:56:02.947Z,5.10
2017-07-28T02:58:32.023Z,5.40
2017-07-28T03:01:01.077Z,5.57
2017-07-28T03:03:30.127Z,5.10
2017-07-28T03:05:59.203Z,5.27
2017-07-28T03:08:28.263Z,5.33
2017-07-28T03:10:57.320Z,4.97
2017-07-28T03:13:26.384Z,5.80
2017-07-28T03:15:55.443Z,4.90
2017-07-28T03:18:24.550Z,4.40
2017-07-28T03:20:53.564Z,5.00
2017-07-28T03:23:22.619Z,5.67
2017-07-28T03:25:51.683Z,4.10
2017-07-28T03:28:20.739Z,3.80
2017-07-28T03:30:49.784Z,4.80
2017-07-28T03:33:18.847Z,4.23
2017-07-28T03:35:47.895Z,4.37
2017-07-28T03:38:16.973Z,4.17
2017-07-28T03:40:45.995Z,3.53
2017-07-28T03:43:15.044Z,6.10
2017-07-28T03:45:44.120Z,4.43
2017-07-28T03:48:13.182Z,4.27
2017-07-28T03:50:42.225Z,5.27
2017-07-28T03:53:11.272Z,4.00
2017-07-28T03:55:40.319Z,4.30
2017-07-28T03:58:09.379Z,4.10
2017-07-28T04:00:38.445Z,3.73
2017-07-28T04:03:07.511Z,5.17
2017-07-28T04:05:36.549Z,4.13
2017-07-28T04:08:05.617Z,4.20
2017-07-28T04:10:34.667Z,3.87
2017-07-28T04:13:03.736Z,3.83
2017-07-28T04:15:32.780Z,4.03
2017-07-28T04:18:01.842Z,4.83
2017-07-28T04:20:30.892Z,4.47
2017-07-28T04:22:59.933Z,4.97
2017-07-28T04:25:28.993Z,3.70
2017-07-28T04:27:58.034Z,3.47
2017-07-28T04:30:27.321Z,3.80
2017-07-28T04:32:56.604Z,3.90
2017-07-28T04:35:25.896Z,3.97
2017-07-28T04:37:54.956Z,3.43
2017-07-28T04:40:24.007Z,4.50
2017-07-28T04:42:53.077Z,4.17
2017-07-28T04:45:22.131Z,4.60
2017-07-28T04:47:51.164Z,3.37
2017-07-28T04:50:20.249Z,4.10
2017-07-28T04:52:49.288Z,3.63
2017-07-28T04:55:18.390Z,3.03
2017-07-28T04:57:47.489Z,3.80
2017-07-28T05:00:16.584Z,3.13
2017-07-28T05:02:45.660Z,3.40
2017-07-28T05:05:14.730Z,4.03
2017-07-28T05:07:43.866Z,4.07
2017-07-28T05:10:12.918Z,3.70
2017-07-28T05:12:42.256Z,3.93
2017-07-28T05:15:11.391Z,4.13
2017-07-28T05:17:40.427Z,2.97
2017-07-28T05:20:09.520Z,3.80
2017-07-28T05:22:38.588Z,4.53
2017-07-28T05:25:07.656Z,4.47
2017-07-28T05:27:36.715Z,4.77
2017-07-28T05:30:05.811Z,3.63
2017-07-28T05:32:34.856Z,3.80
2017-07-28T05:35:03.898Z,3.30
2017-07-28T05:37:32.959Z,3.37
2017-07-28T05:40:02.017Z,3.87
2017-07-28T05:42:31.074Z,3.70
2017-07-28T05:45:00.136Z,3.43
2017-07-28T05:47:29.226Z,3.50
2017-07-28T05:49:58.253Z,3.00
2017-07-28T05:52:27.292Z,4.03
2017-07-28T05:54:56.347Z,4.27
2017-07-28T05:57:25.415Z,3.60
2017-07-28T05:59:54.470Z,4.07
2017-07-28T06:02:23.528Z,4.00
2017-07-28T06:04:52.589Z,4.03
2017-07-28T06:07:21.847Z,3.20
2017-07-28T06:09:50.905Z,4.17
2017-07-28T06:12:19.985Z,3.90
2017-07-28T06:14:49.067Z,4.33
2017-07-28T06:17:18.114Z,3.80
2017-07-28T06:19:47.162Z,4.53
2017-07-28T06:22:16.227Z,3.57
2017-07-28T06:24:45.287Z,3.67
2017-07-28T06:27:14.421Z,3.93
2017-07-28T06:29:43.726Z,3.70
2017-07-28T06:32:12.777Z,3.87
2017-07-28T06:34:41.865Z,4.13
2017-07-28T06:37:10.913Z,3.07
2017-07-28T06:39:39.953Z,3.73
2017-07-28T06:42:09.196Z,3.60
2017-07-28T06:44:38.236Z,2.80
2017-07-28T06:47:07.273Z,4.20
2017-07-28T06:49:36.352Z,3.67
2017-07-28T06:52:05.412Z,3.97
2017-07-28T06:54:34.471Z,4.10
2017-07-28T06:57:03.564Z,3.37
2017-07-28T06:59:32.619Z,3.70
2017-07-28T07:02:01.694Z,3.87
2017-07-28T07:04:30.733Z,3.00
2017-07-28T07:06:59.806Z,3.50
2017-07-28T07:09:28.859Z,4.07
2017-07-28T07:11:57.907Z,3.33
2017-07-28T07:14:26.980Z,3.80
2017-07-28T07:16:56.027Z,3.60
2017-07-28T07:19:25.079Z,5.10
2017-07-28T07:21:54.123Z,3.43
2017-07-28T07:24:23.416Z,3.40
2017-07-28T07:26:52.495Z,4.10
2017-07-28T07:29:21.554Z,4.30
2017-07-28T07:31:50.620Z,4.93
2017-07-28T07:34:19.710Z,5.00
2017-07-28T07:36:48.771Z,4.27
2017-07-28T07:39:17.856Z,3.53
2017-07-28T07:41:46.924Z,3.90
2017-07-28T07:44:16.006Z,3.60
2017-07-28T07:46:45.054Z,3.20
2017-07-28T07:49:14.131Z,3.50
2017-07-28T07:51:43.195Z,3.67
2017-07-28T07:54:12.264Z,3.40
2017-07-28T07:56:41.349Z,3.50
2017-07-28T07:59:10.388Z,3.90
2017-07-28T08:01:39.433Z,3.63
2017-07-28T08:04:08.507Z,4.07
2017-07-28T08:06:37.582Z,4.33
2017-07-28T08:09:06.655Z,3.30
2017-07-28T08:11:35.717Z,3.33
2017-07-28T08:14:04.788Z,4.07
2017-07-28T08:16:33.875Z,4.70
2017-07-28T08:19:02.916Z,3.33
2017-07-28T08:21:31.988Z,3.57
2017-07-28T08:24:01.063Z,3.90
2017-07-28T08:26:30.128Z,3.80
2017-07-28T08:28:59.193Z,3.53
2017-07-28T08:31:28.236Z,3.73
2017-07-28T08:33:57.311Z,4.20
2017-07-28T08:36:26.361Z,4.40
2017-07-28T08:38:55.447Z,4.20
2017-07-28T08:41:24.513Z,3.90
2017-07-28T08:43:53.567Z,3.63
2017-07-28T08:46:22.627Z,3.93
2017-07-28T08:48:51.668Z,3.40
2017-07-28T08:51:20.711Z,3.40
2017-07-28T08:53:49.858Z,3.17
2017-07-28T08:56:18.875Z,4.90
2017-07-28T08:58:47.948Z,4.00
2017-07-28T09:01:17.246Z,3.53
2017-07-28T09:03:46.284Z,4.00
2017-07-28T09:06:15.358Z,3.20
2017-07-28T09:08:44.424Z,2.67
2017-07-28T09:11:13.631Z,3.10
2017-07-28T09:13:42.714Z,2.77
2017-07-28T09:16:11.777Z,3.40
2017-07-28T09:18:40.825Z,3.47
2017-07-28T09:21:09.947Z,3.20
2017-07-28T09:23:39.001Z,3.10
2017-07-28T09:26:08.115Z,3.20
2017-07-28T09:28:37.194Z,4.37
2017-07-28T09:31:06.271Z,3.10
2017-07-28T09:33:35.312Z,2.90
2017-07-28T09:36:04.379Z,3.40
2017-07-28T09:38:33.472Z,2.43
2017-07-28T09:41:02.510Z,2.33
2017-07-28T09:43:31.559Z,3.00
2017-07-28T09:46:00.628Z,3.23
2017-07-28T09:48:29.675Z,3.13
2017-07-28T09:50:58.738Z,2.70
2017-07-28T09:53:27.778Z,2.57
2017-07-28T09:55:56.841Z,2.10
2017-07-28T09:58:25.876Z,2.67
2017-07-28T10:00:54.952Z,3.03
2017-07-28T10:03:24.027Z,2.30
2017-07-28T10:05:53.305Z,2.70
2017-07-28T10:08:22.368Z,3.13
2017-07-28T10:10:51.422Z,2.30
2017-07-28T10:13:20.492Z,2.40
2017-07-28T10:15:49.542Z,2.90
2017-07-28T10:18:18.631Z,2.87
2017-07-28T10:20:47.663Z,2.87
2017-07-28T10:23:16.783Z,2.80
2017-07-28T10:25:45.831Z,3.00
2017-07-28T10:28:14.909Z,1.87
2017-07-28T10:30:43.993Z,2.20
2017-07-28T10:33:13.092Z,2.00
2017-07-28T10:35:42.133Z,2.77
2017-07-28T10:38:11.192Z,2.87
2017-07-28T10:40:40.255Z,2.30
2017-07-28T10:43:09.329Z,2.17
2017-07-28T10:45:38.376Z,2.37
2017-07-28T10:48:07.447Z,2.13
2017-07-28T10:50:36.515Z,1.90
2017-07-28T10:53:05.548Z,2.10
2017-07-28T10:55:34.627Z,2.03
2017-07-28T10:58:03.732Z,1.90
2017-07-28T11:00:32.760Z,1.80
2017-07-28T11:03:01.817Z,2.37
2017-07-28T11:05:30.880Z,2.50
2017-07-28T11:07:59.932Z,2.10
2017-07-28T11:10:28.983Z,1.90
2017-07-28T11:12:58.041Z,2.23
2017-07-28T11:15:27.108Z,2.37
2017-07-28T11:17:56.936Z,2.27
2017-07-28T11:20:26.006Z,2.57
2017-07-28T11:22:55.040Z,1.70
2017-07-28T11:25:24.100Z,2.37
2017-07-28T11:27:53.163Z,2.70
2017-07-28T11:30:22.234Z,2.27
2017-07-28T11:32:51.266Z,2.10
2017-07-28T11:35:20.528Z,3.03
2017-07-28T11:37:49.600Z,2.67
2017-07-28T11:40:18.692Z,2.47
2017-07-28T11:42:47.756Z,3.10
2017-07-28T11:45:16.792Z,2.40
2017-07-28T11:47:46.181Z,2.97
2017-07-28T11:50:15.261Z,2.57
2017-07-28T11:52:44.325Z,2.53
2017-07-28T11:55:13.414Z,2.40
2017-07-28T11:57:42.458Z,1.47
2017-07-28T12:00:11.584Z,2.20
2017-07-28T12:02:40.674Z,2.13
2017-07-28T12:05:09.731Z,2.07
2017-07-28T12:07:38.848Z,2.10
2017-07-28T12:10:08.722Z,2.97
2017-07-28T12:12:37.812Z,2.20
2017-07-28T12:15:06.897Z,1.93
2017-07-28T12:17:35.932Z,2.37
2017-07-28T12:20:05.776Z,2.07
2017-07-28T12:22:34.826Z,2.00
2017-07-28T12:25:03.975Z,2.70
2017-07-28T12:27:33.023Z,2.20
2017-07-28T12:30:03.049Z,1.67
2017-07-28T12:32:32.111Z,1.53
2017-07-28T12:35:01.194Z,3.10
2017-07-28T12:37:30.244Z,2.40
2017-07-28T12:40:00.099Z,2.30
2017-07-28T12:42:29.172Z,2.50
2017-07-28T12:44:58.243Z,2.30
2017-07-28T12:47:28.104Z,1.80
2017-07-28T12:49:57.164Z,1.97
2017-07-28T12:52:26.969Z,1.60
2017-07-28T12:54:56.791Z,2.50
2017-07-28T12:57:25.875Z,1.80
2017-07-28T12:59:55.705Z,2.10
2017-07-28T13:02:24.761Z,1.70
2017-07-28T13:04:53.829Z,2.33
2017-07-28T13:07:22.900Z,2.80
2017-07-28T13:09:52.825Z,1.50
2017-07-28T13:12:21.879Z,2.40
2017-07-28T13:14:51.697Z,1.97
2017-07-28T13:17:21.558Z,1.90
2017-07-28T13:19:50.590Z,1.50
2017-07-28T13:22:19.676Z,2.33
2017-07-28T13:24:48.764Z,2.00
2017-07-28T13:27:17.805Z,1.80
2017-07-28T13:29:46.877Z,2.33
2017-07-28T13:32:16.713Z,2.43
2017-07-28T13:34:45.799Z,1.80
2017-07-28T13:37:15.645Z,2.00
2017-07-28T13:39:44.707Z,2.00
2017-07-28T13:42:14.656Z,2.30
2017-07-28T13:44:43.753Z,1.50
2017-07-28T13:47:12.783Z,2.43
2017-07-28T13:49:43.074Z,2.00
2017-07-28T13:52:12.125Z,2.20
2017-07-28T13:54:41.953Z,2.10
2017-07-28T13:57:11.025Z,1.77
2017-07-28T13:59:40.085Z,2.00
2017-07-28T14:02:09.178Z,2.03
2017-07-28T14:04:38.239Z,1.70
2017-07-28T14:07:07.583Z,2.73
2017-07-28T14:09:36.652Z,1.87
2017-07-28T14:12:05.740Z,1.83
2017-07-28T14:14:34.802Z,2.10
2017-07-28T14:17:03.880Z,2.20
2017-07-28T14:19:32.952Z,2.33
2017-07-28T14:22:02.008Z,1.97
2017-07-28T14:24:31.067Z,2.20
2017-07-28T14:27:00.220Z,2.13
2017-07-28T14:29:29.283Z,3.10
2017-07-28T14:31:59.126Z,2.17
2017-07-28T14:34:28.179Z,2.10
2017-07-28T14:36:57.983Z,1.80
2017-07-28T14:39:27.060Z,1.53
2017-07-28T14:41:56.140Z,2.13
2017-07-28T14:44:25.184Z,2.20
2017-07-28T14:46:55.056Z,2.40
2017-07-28T14:49:24.092Z,2.30
2017-07-28T14:51:53.927Z,1.97
2017-07-28T14:54:22.984Z,2.60
2017-07-28T14:56:52.052Z,1.60
2017-07-28T14:59:21.113Z,1.90
2017-07-28T15:01:50.191Z,2.10
2017-07-28T15:04:19.999Z,1.67
2017-07-28T15:06:49.948Z,2.17
2017-07-28T15:09:19.023Z,1.83
2017-07-28T15:11:48.930Z,2.50
2017-07-28T15:14:18.757Z,2.20
2017-07-28T15:16:47.815Z,2.80
2017-07-28T15:19:16.876Z,2.13
2017-07-28T15:21:45.939Z,2.23
2017-07-28T15:24:15.070Z,2.33
2017-07-28T15:26:44.560Z,2.13
2017-07-28T15:29:13.625Z,2.13
2017-07-28T15:31:44.028Z,1.93
2017-07-28T15:34:13.892Z,1.80
2017-07-28T15:36:43.044Z,2.00
2017-07-28T15:39:12.918Z,1.90
2017-07-28T15:41:41.991Z,2.40
2017-07-28T15:44:11.068Z,2.00
2017-07-28T15:46:40.911Z,2.70
2017-07-28T15:49:09.968Z,2.33
2017-07-28T15:51:39.779Z,2.20
2017-07-28T15:54:09.856Z,1.73
2017-07-28T15:56:38.894Z,2.07
2017-07-28T15:59:08.752Z,2.33
2017-07-28T16:01:37.823Z,2.00
2017-07-28T16:04:06.882Z,2.10
2017-07-28T16:06:36.706Z,2.00
2017-07-28T16:09:06.175Z,2.10
2017-07-28T16:11:35.231Z,2.00
2017-07-28T16:14:04.273Z,1.83
2017-07-28T16:16:33.322Z,2.20
2017-07-28T16:19:02.394Z,2.17
2017-07-28T16:21:32.223Z,2.20
2017-07-28T16:24:01.296Z,2.20
2017-07-28T16:26:31.116Z,1.73
2017-07-28T16:29:00.955Z,2.00
2017-07-28T16:31:30.006Z,2.00
2017-07-28T16:33:59.833Z,1.70
2017-07-28T16:36:29.670Z,2.03
2017-07-28T16:38:58.742Z,1.97
2017-07-28T16:41:27.854Z,1.80
2017-07-28T16:43:56.925Z,2.03
2017-07-28T16:46:25.954Z,1.80
2017-07-28T16:48:55.021Z,1.70
2017-07-28T16:51:24.832Z,2.20
2017-07-28T16:53:54.685Z,2.13
2017-07-28T16:56:23.758Z,2.40
2017-07-28T16:58:53.594Z,2.23
2017-07-28T17:01:22.649Z,2.80
2017-07-28T17:03:52.469Z,1.80
2017-07-28T17:06:21.533Z,1.90
2017-07-28T17:08:50.586Z,1.87
2017-07-28T17:11:19.640Z,1.80
2017-07-28T17:13:49.496Z,2.40
2017-07-28T17:16:18.551Z,2.07
2017-07-28T17:18:48.371Z,2.13
2017-07-28T17:21:17.463Z,1.87
2017-07-28T17:23:47.297Z,2.10
2017-07-28T17:26:16.343Z,1.70
2017-07-28T17:28:45.396Z,1.80
2017-07-28T17:31:14.505Z,2.40
2017-07-28T17:33:43.528Z,1.83
2017-07-28T17:36:12.644Z,1.93
2017-07-28T17:38:41.673Z,2.00
2017-07-28T17:41:10.727Z,1.97
2017-07-28T17:43:40.555Z,2.20
2017-07-28T17:46:10.139Z,2.40
2017-07-28T17:48:39.209Z,1.63
2017-07-28T17:51:08.295Z,2.43
2017-07-28T17:53:37.347Z,2.33
2017-07-28T17:56:07.174Z,2.50
2017-07-28T17:58:36.523Z,2.23
2017-07-28T18:01:05.619Z,2.00
2017-07-28T18:03:34.695Z,1.73
2017-07-28T18:06:03.755Z,2.40
2017-07-28T18:08:32.826Z,1.50
2017-07-28T18:11:01.901Z,2.30
2017-07-28T18:13:31.995Z,1.87
2017-07-28T18:16:01.044Z,1.80
2017-07-28T18:18:30.869Z,1.60
2017-07-28T18:20:59.942Z,2.13
2017-07-28T18:23:29.013Z,2.57
2017-07-28T18:25:58.071Z,2.43
2017-07-28T18:28:27.143Z,2.00
2017-07-28T18:30:56.196Z,2.10
2017-07-28T18:33:25.239Z,2.13
2017-07-28T18:35:54.327Z,2.33
2017-07-28T18:38:24.155Z,2.13
2017-07-28T18:40:53.202Z,2.10
2017-07-28T18:43:22.285Z,1.93
2017-07-28T18:45:51.360Z,2.57
2017-07-28T18:48:20.425Z,2.10
2017-07-28T18:50:49.489Z,2.30
2017-07-28T18:53:18.547Z,2.40
2017-07-28T18:55:47.628Z,2.00
2017-07-28T18:58:16.709Z,2.20
2017-07-28T19:00:45.779Z,2.20
2017-07-28T19:03:15.612Z,1.63
2017-07-28T19:05:44.703Z,2.37
2017-07-28T19:08:14.626Z,2.67
2017-07-28T19:10:43.715Z,2.20
2017-07-28T19:13:12.773Z,1.67
2017-07-28T19:15:41.863Z,2.33
2017-07-28T19:18:10.943Z,1.97
2017-07-28T19:20:40.004Z,1.87
2017-07-28T19:23:09.114Z,2.10
2017-07-28T19:25:38.149Z,2.07
2017-07-28T19:28:07.277Z,2.10
2017-07-28T19:30:36.352Z,2.27
2017-07-28T19:33:05.401Z,2.70
2017-07-28T19:35:34.471Z,2.00
2017-07-28T19:38:03.526Z,2.17
2017-07-28T19:40:32.571Z,1.90
2017-07-28T19:43:01.630Z,2.10
2017-07-28T19:45:30.696Z,2.43
2017-07-28T19:48:00.530Z,1.80
2017-07-28T19:50:29.592Z,2.23
2017-07-28T19:52:58.674Z,1.80
2017-07-28T19:55:27.718Z,1.73
2017-07-28T19:57:56.789Z,1.80
2017-07-28T20:00:25.844Z,2.10
2017-07-28T20:02:54.915Z,2.07
2017-07-28T20:05:23.980Z,1.90
2017-07-28T20:07:53.036Z,2.47
2017-07-28T20:10:22.084Z,2.20
2017-07-28T20:12:51.139Z,2.00
2017-07-28T20:15:20.207Z,1.90
2017-07-28T20:17:49.284Z,2.13
2017-07-28T20:20:18.379Z,2.17
2017-07-28T20:22:47.432Z,1.80
2017-07-28T20:25:16.556Z,1.87
2017-07-28T20:27:45.615Z,2.10
2017-07-28T20:30:14.684Z,2.13
2017-07-28T20:32:43.720Z,2.07
2017-07-28T20:35:12.779Z,1.63
2017-07-28T20:37:41.857Z,2.50
2017-07-28T20:40:10.923Z,2.63
2017-07-28T20:42:39.986Z,3.10
2017-07-28T20:45:09.166Z,2.57
2017-07-28T20:47:38.243Z,2.63
2017-07-28T20:50:07.324Z,3.50
2017-07-28T20:52:36.394Z,2.60
2017-07-28T20:55:05.481Z,2.53
2017-07-28T20:57:34.544Z,2.87
2017-07-28T21:00:03.604Z,2.60
2017-07-28T21:02:32.645Z,3.03
2017-07-28T21:05:01.716Z,2.90
2017-07-28T21:07:30.760Z,2.50
2017-07-28T21:09:59.853Z,2.80
2017-07-28T21:12:28.929Z,2.93
2017-07-28T21:14:59.816Z,3.03
2017-07-28T21:17:28.892Z,2.97
2017-07-28T21:19:57.932Z,3.10
2017-07-28T21:22:26.988Z,3.57
2017-07-28T21:24:56.058Z,3.00
2017-07-28T21:27:25.138Z,2.93
2017-07-28T21:29:54.189Z,3.37
2017-07-28T21:32:23.241Z,3.40
2017-07-28T21:34:52.300Z,3.10
2017-07-28T21:37:21.381Z,3.20
2017-07-28T21:39:50.435Z,3.20
2017-07-28T21:42:19.464Z,3.20
2017-07-28T21:44:48.536Z,3.80
2017-07-28T21:47:17.605Z,3.57
2017-07-28T21:49:46.663Z,4.03
2017-07-28T21:52:15.917Z,3.80
2017-07-28T21:54:44.973Z,3.70
2017-07-28T21:57:14.097Z,4.33
2017-07-28T21:59:43.162Z,3.70
2017-07-28T22:02:12.246Z,4.13
2017-07-28T22:04:41.324Z,3.93
2017-07-28T22:07:10.430Z,3.50
2017-07-28T22:09:39.484Z,4.30
2017-07-28T22:12:08.551Z,3.60
2017-07-28T22:14:37.624Z,3.90
2017-07-28T22:17:06.688Z,4.10
2017-07-28T22:19:35.781Z,4.63
2017-07-28T22:22:04.894Z,4.80
2017-07-28T22:24:33.969Z,4.63
2017-07-28T22:27:03.036Z,4.43
2017-07-28T22:29:32.112Z,5.40
2017-07-28T22:32:01.184Z,3.90
2017-07-28T22:34:30.464Z,5.60
2017-07-28T22:36:59.534Z,4.43
2017-07-28T22:39:28.595Z,5.17
2017-07-28T22:41:57.669Z,4.70
2017-07-28T22:44:26.720Z,4.70
2017-07-28T22:46:55.798Z,4.33
2017-07-28T22:49:25.097Z,4.77
2017-07-28T22:51:54.140Z,3.50
2017-07-28T22:54:23.244Z,4.40
2017-07-28T22:56:52.284Z,3.87
2017-07-28T22:59:21.331Z,4.40
2017-07-28T23:01:50.617Z,4.13
2017-07-28T23:04:19.673Z,4.67
2017-07-28T23:06:48.745Z,4.57
2017-07-28T23:09:17.813Z,4.30
2017-07-28T23:11:46.902Z,4.47
2017-07-28T23:14:15.920Z,4.67
2017-07-28T23:16:44.991Z,4.70
2017-07-28T23:19:14.068Z,4.77
2017-07-28T23:21:43.122Z,4.90
2017-07-28T23:24:12.183Z,4.90
2017-07-28T23:26:41.269Z,4.53
2017-07-28T23:29:10.307Z,4.67
2017-07-28T23:31:39.371Z,4.50
2017-07-28T23:34:08.456Z,4.17
2017-07-28T23:36:37.532Z,4.23
2017-07-28T23:39:06.602Z,4.67
2017-07-28T23:41:35.703Z,4.10
2017-07-28T23:44:04.768Z,4.77
2017-07-28T23:46:33.971Z,4.20
2017-07-28T23:49:03.045Z,4.03
2017-07-28T23:51:32.105Z,4.60
2017-07-28T23:54:01.174Z,4.93
2017-07-28T23:56:30.227Z,5.03
2017-07-28T23:58:59.268Z,4.03
